Time;durP1;ratioP1;P1;durP2;ratioP2;P2;SDS_P1;SDS_P2;PMS_P1;PMS_P2;Temp;Humidity;BMP_temperature;BMP_pressure;BME280_temperature;BME280_humidity;BME280_pressure;Samples;Min_cycle;Max_cycle;Signal;HPM_P1;HPM_P2
2020/12/05 12:09:09;;;;;;;3.10;1.00;;;6.40;99.90;;;;;;5135539;27;20570;-76
2020/12/05 12:11:35;;;;;;;2.57;0.83;;;6.50;99.90;;;;;;5136801;27;20297;-76
2020/12/05 12:14:01;;;;;;;3.07;0.97;;;6.80;99.90;;;;;;5147273;27;20202;-78
2020/12/05 12:16:28;;;;;;;0.90;0.77;;;7.10;99.90;;;;;;5139792;27;20292;-77
2020/12/05 12:18:54;;;;;;;0.90;0.60;;;7.40;99.90;;;;;;5131957;27;20573;-78
2020/12/05 12:21:24;;;;;;;1.37;0.70;;;7.50;99.90;;;;;;5137540;27;20202;-78
2020/12/05 12:23:51;;;;;;;1.70;1.00;;;7.70;99.90;;;;;;5142612;27;20298;-79
2020/12/05 12:26:18;;;;;;;1.33;0.73;;;7.90;99.90;;;;;;5136579;27;20692;-78
2020/12/05 12:28:45;;;;;;;1.60;1.13;;;7.90;99.90;;;;;;5140508;27;20305;-78
2020/12/05 12:31:11;;;;;;;2.30;1.00;;;8.00;99.90;;;;;;5137605;27;20195;-75
2020/12/05 12:33:38;;;;;;;2.03;1.27;;;8.00;99.90;;;;;;5135515;27;20202;-78
2020/12/05 12:36:04;;;;;;;2.57;1.33;;;7.90;99.90;;;;;;5136066;27;20198;-78
2020/12/05 12:38:30;;;;;;;1.50;0.90;;;7.90;99.90;;;;;;5134960;27;20516;-78
2020/12/05 12:40:57;;;;;;;3.47;1.40;;;7.90;99.90;;;;;;5137606;27;20208;-79
2020/12/05 12:43:24;;;;;;;7.50;1.20;;;7.90;99.90;;;;;;5135478;27;20282;-77
2020/12/05 12:45:51;;;;;;;1.77;1.10;;;7.90;99.90;;;;;;5131987;27;20223;-76
2020/12/05 12:51:02;;;;;;;4.07;1.20;;;7.60;99.90;;;;;;5136393;27;20219;-79
2020/12/05 12:53:28;;;;;;;2.27;1.13;;;7.60;99.90;;;;;;5135510;27;20204;-77
2020/12/05 12:55:54;;;;;;;4.00;1.10;;;7.90;99.90;;;;;;5133602;27;20290;-76
2020/12/05 12:58:27;;;;;;;1.70;1.00;;;8.00;99.90;;;;;;5132334;27;20204;-78
2020/12/05 13:00:54;;;;;;;2.40;0.90;;;8.00;99.90;;;;;;5135486;27;20658;-77
2020/12/05 13:03:22;;;;;;;2.67;1.23;;;7.90;99.90;;;;;;5132606;27;20212;-76
2020/12/05 13:05:48;;;;;;;4.00;1.30;;;7.80;99.90;;;;;;5133896;27;20221;-78
2020/12/05 13:08:14;;;;;;;1.67;0.83;;;7.80;99.90;;;;;;5139850;27;20239;-77
2020/12/05 13:10:41;;;;;;;2.57;1.00;;;7.70;99.90;;;;;;5133214;27;20210;-78
2020/12/05 13:13:07;;;;;;;1.63;0.97;;;7.50;99.90;;;;;;5139106;27;20203;-78
2020/12/05 13:15:33;;;;;;;1.73;0.90;;;7.40;99.90;;;;;;5136998;27;20207;-78
2020/12/05 13:18:01;;;;;;;3.07;1.20;;;7.40;99.90;;;;;;5143605;27;20223;-78
2020/12/05 13:20:27;;;;;;;1.23;0.93;;;7.50;99.90;;;;;;5129602;27;20234;-78
2020/12/05 13:22:53;;;;;;;1.47;1.00;;;7.50;99.90;;;;;;5128048;27;20194;-79
2020/12/05 13:25:20;;;;;;;5.40;0.90;;;7.60;99.90;;;;;;5126947;27;20473;-79
2020/12/05 13:27:46;;;;;;;2.80;0.90;;;7.70;99.90;;;;;;5129811;27;20600;-78
2020/12/05 13:30:13;;;;;;;1.40;0.87;;;7.80;99.90;;;;;;5129407;27;20287;-78
2020/12/05 13:32:39;;;;;;;3.53;1.00;;;7.70;99.90;;;;;;5131310;27;20206;-77
2020/12/05 13:35:06;;;;;;;3.20;1.17;;;7.90;99.90;;;;;;5129123;27;20203;-76
2020/12/05 13:37:33;;;;;;;3.63;1.20;;;7.90;99.90;;;;;;5126277;27;20621;-78
2020/12/05 13:39:59;;;;;;;1.60;0.93;;;8.00;99.90;;;;;;5126753;27;20697;-78
2020/12/05 13:42:25;;;;;;;1.50;1.00;;;7.90;99.90;;;;;;5129589;27;20218;-78
2020/12/05 13:44:52;;;;;;;1.10;0.70;;;7.90;99.90;;;;;;5125727;27;20203;-78
2020/12/05 13:47:18;;;;;;;2.73;1.20;;;7.80;99.90;;;;;;5129679;27;20730;-80
2020/12/05 13:49:45;;;;;;;4.77;1.33;;;7.70;99.90;;;;;;5131496;27;20195;-77
2020/12/05 13:52:12;;;;;;;1.83;0.90;;;7.50;99.90;;;;;;5128693;27;20229;-77
2020/12/05 13:54:38;;;;;;;3.17;1.30;;;7.60;99.90;;;;;;5126481;27;20204;-76
2020/12/05 13:57:05;;;;;;;1.80;0.97;;;7.60;99.90;;;;;;5122428;27;20270;-77
2020/12/05 13:59:32;;;;;;;1.93;1.10;;;7.70;99.90;;;;;;5119416;27;20525;-74
2020/12/05 14:01:59;;;;;;;1.47;0.90;;;7.70;99.90;;;;;;5133423;27;20756;-77
2020/12/05 14:04:26;;;;;;;2.63;1.20;;;7.80;99.90;;;;;;5132760;27;20205;-79
2020/12/05 14:06:53;;;;;;;1.20;0.90;;;7.70;99.90;;;;;;5132635;27;20294;-78
2020/12/05 14:09:20;;;;;;;2.30;1.30;;;7.70;99.90;;;;;;5131843;27;20653;-78
2020/12/05 14:11:47;;;;;;;2.30;0.97;;;7.70;99.90;;;;;;5128037;27;20207;-75
2020/12/05 14:14:14;;;;;;;2.03;1.13;;;7.60;99.90;;;;;;5129896;27;20209;-76
2020/12/05 14:16:40;;;;;;;1.27;0.90;;;7.40;99.90;;;;;;5127387;27;20204;-73
2020/12/05 14:19:07;;;;;;;6.10;1.70;;;7.20;99.90;;;;;;5127679;27;20217;-77
2020/12/05 14:21:33;;;;;;;1.97;1.30;;;7.00;99.90;;;;;;5129218;27;20914;-76
2020/12/05 14:23:59;;;;;;;3.27;1.30;;;6.90;99.90;;;;;;5132973;27;20204;-79
2020/12/05 14:26:28;;;;;;;3.83;1.53;;;6.90;99.90;;;;;;5124251;27;20284;-77
2020/12/05 14:28:55;;;;;;;3.07;1.40;;;6.90;99.90;;;;;;5131430;27;20308;-78
2020/12/05 14:31:22;;;;;;;2.40;0.83;;;6.90;99.90;;;;;;5130557;27;20228;-77
2020/12/05 14:33:49;;;;;;;1.60;1.10;;;6.90;99.90;;;;;;5122364;27;20255;-78
2020/12/05 14:36:17;;;;;;;2.00;0.73;;;6.70;99.90;;;;;;5115690;27;20193;-76
2020/12/05 14:38:44;;;;;;;1.70;1.00;;;6.60;99.90;;;;;;5113109;27;20203;-78
2020/12/05 14:41:11;;;;;;;3.70;0.97;;;6.60;99.90;;;;;;5116950;27;20204;-77
2020/12/05 14:43:38;;;;;;;2.23;1.10;;;6.60;99.90;;;;;;5127565;27;20285;-77
2020/12/05 14:46:06;;;;;;;1.97;0.90;;;6.70;99.90;;;;;;5119461;27;20200;-78
2020/12/05 14:48:33;;;;;;;3.03;0.90;;;6.80;99.90;;;;;;5121408;27;20304;-80
2020/12/05 14:50:59;;;;;;;2.03;0.80;;;6.80;99.90;;;;;;5123807;27;20281;-77
2020/12/05 14:53:26;;;;;;;1.53;0.70;;;6.80;99.90;;;;;;5129273;27;20297;-79
2020/12/05 14:55:52;;;;;;;2.17;0.90;;;6.70;99.90;;;;;;5123954;27;20210;-76
2020/12/05 14:58:21;;;;;;;1.90;1.00;;;6.80;99.90;;;;;;5126736;27;20286;-79
2020/12/05 15:00:48;;;;;;;1.23;0.90;;;6.90;99.90;;;;;;5120355;27;20205;-76
2020/12/05 15:03:15;;;;;;;0.80;0.60;;;6.90;99.90;;;;;;5117082;27;20556;-78
2020/12/05 15:05:41;;;;;;;1.27;0.80;;;7.00;99.90;;;;;;5117107;27;20202;-78
2020/12/05 15:08:07;;;;;;;2.97;0.80;;;7.00;99.90;;;;;;5115486;27;20312;-77
2020/12/05 15:10:34;;;;;;;2.97;1.00;;;6.90;99.90;;;;;;5120104;27;20206;-76
2020/12/05 15:13:00;;;;;;;2.20;0.70;;;6.90;99.90;;;;;;5115230;27;20295;-76
2020/12/05 15:15:26;;;;;;;1.20;0.63;;;6.90;99.90;;;;;;5120365;27;20206;-76
2020/12/05 15:17:54;;;;;;;3.57;0.70;;;6.80;99.90;;;;;;5120660;27;20730;-76
2020/12/05 15:20:20;;;;;;;3.93;0.70;;;6.60;99.90;;;;;;5120319;27;20241;-75
2020/12/05 15:22:46;;;;;;;0.87;0.60;;;6.50;99.90;;;;;;5121279;27;20687;-76
2020/12/05 15:25:13;;;;;;;1.73;0.80;;;6.50;99.90;;;;;;5119147;27;20290;-77
2020/12/05 15:27:39;;;;;;;4.17;1.10;;;6.60;99.90;;;;;;5117997;27;20247;-76
2020/12/05 15:30:06;;;;;;;2.37;0.97;;;6.50;99.90;;;;;;5120934;27;20201;-76
2020/12/05 15:32:33;;;;;;;2.47;1.03;;;6.60;99.90;;;;;;5118813;27;20293;-77
2020/12/05 15:35:00;;;;;;;1.90;1.00;;;6.50;99.90;;;;;;5117718;27;20200;-75
2020/12/05 15:37:27;;;;;;;2.80;0.90;;;6.60;99.90;;;;;;5116887;27;20217;-77
2020/12/05 15:39:54;;;;;;;2.10;1.00;;;6.50;99.90;;;;;;5116021;27;20214;-76
2020/12/05 15:42:20;;;;;;;5.93;2.40;;;6.60;99.90;;;;;;5116860;27;20234;-76
2020/12/05 15:44:47;;;;;;;5.87;2.00;;;6.60;99.90;;;;;;5121331;27;20536;-75
2020/12/05 15:47:14;;;;;;;3.17;1.00;;;6.60;99.90;;;;;;5117704;27;20287;-78
2020/12/05 15:49:40;;;;;;;3.47;1.00;;;6.60;99.90;;;;;;5112994;27;20610;-78
2020/12/05 15:52:08;;;;;;;3.27;1.20;;;6.70;99.90;;;;;;5120032;27;20203;-79
2020/12/05 15:54:34;;;;;;;3.38;1.10;;;6.70;99.90;;;;;;5118321;27;20450;-77
2020/12/05 15:57:00;;;;;;;4.60;1.00;;;6.50;99.90;;;;;;5114867;27;20203;-78
2020/12/05 15:59:26;;;;;;;1.03;0.90;;;6.50;99.90;;;;;;5118649;27;20292;-76
2020/12/05 16:01:54;;;;;;;3.60;1.10;;;6.50;99.90;;;;;;5115366;27;20274;-78
2020/12/05 16:04:21;;;;;;;1.87;1.10;;;6.40;99.90;;;;;;5117615;27;20681;-77
2020/12/05 16:06:51;;;;;;;2.87;1.10;;;6.30;99.90;;;;;;5116613;27;20200;-77
2020/12/05 16:09:18;;;;;;;3.37;1.10;;;6.20;99.90;;;;;;5119829;27;20215;-78
2020/12/05 16:11:45;;;;;;;2.07;1.20;;;6.40;99.90;;;;;;5118704;27;20191;-78
2020/12/05 16:14:11;;;;;;;4.53;1.77;;;6.20;99.90;;;;;;5114839;27;20737;-77
2020/12/05 16:16:38;;;;;;;9.63;2.23;;;6.00;99.90;;;;;;5114525;27;20194;-78
2020/12/05 16:19:04;;;;;;;2.70;1.40;;;5.80;99.90;;;;;;5115740;27;20203;-79
2020/12/05 16:21:31;;;;;;;2.00;1.37;;;5.70;99.90;;;;;;5117426;27;20290;-78
2020/12/05 16:23:58;;;;;;;4.60;2.47;;;5.60;99.90;;;;;;5117693;27;20653;-80
2020/12/05 16:26:25;;;;;;;3.17;1.67;;;5.30;99.90;;;;;;5118551;27;20216;-79
2020/12/05 16:28:51;;;;;;;5.53;2.40;;;5.30;99.90;;;;;;5119066;27;20223;-77
2020/12/05 16:31:21;;;;;;;3.37;1.97;;;5.30;99.90;;;;;;5115030;27;20196;-77
2020/12/05 16:33:48;;;;;;;4.17;2.13;;;5.20;99.90;;;;;;5115278;27;20205;-77
2020/12/05 16:36:15;;;;;;;4.60;2.40;;;5.20;99.90;;;;;;5118314;27;20203;-77
2020/12/05 16:38:42;;;;;;;3.67;2.33;;;5.10;99.90;;;;;;5116363;27;20257;-77
2020/12/05 16:41:11;;;;;;;5.33;2.27;;;5.10;99.90;;;;;;5110939;27;20671;-77
2020/12/05 16:43:39;;;;;;;4.73;2.43;;;5.00;99.90;;;;;;5115876;27;20198;-76
2020/12/05 16:46:05;;;;;;;3.53;2.40;;;4.90;99.90;;;;;;5116422;27;20553;-77
2020/12/05 16:48:32;;;;;;;5.70;2.10;;;4.80;99.90;;;;;;5115065;27;20228;-76
2020/12/05 16:50:58;;;;;;;3.93;2.17;;;4.60;99.90;;;;;;5115394;27;20223;-76
2020/12/05 16:53:24;;;;;;;4.53;2.87;;;4.60;99.90;;;;;;5117925;27;20739;-77
2020/12/05 16:55:51;;;;;;;4.77;2.60;;;4.80;99.90;;;;;;5121222;27;21443;-78
2020/12/05 16:58:17;;;;;;;8.20;2.50;;;4.80;99.90;;;;;;5118263;27;20212;-77
2020/12/05 17:00:44;;;;;;;6.07;2.53;;;4.90;99.90;;;;;;5119636;27;20709;-75
2020/12/05 17:03:11;;;;;;;3.87;2.20;;;5.00;99.90;;;;;;5121288;27;20290;-77
2020/12/05 17:05:37;;;;;;;3.40;1.90;;;5.00;99.90;;;;;;5119216;27;20210;-76
2020/12/05 17:08:04;;;;;;;5.60;2.37;;;5.00;99.90;;;;;;5121952;27;20229;-75
2020/12/05 17:10:30;;;;;;;4.13;1.97;;;5.00;99.90;;;;;;5121083;27;20283;-77
2020/12/05 17:12:56;;;;;;;5.23;2.13;;;4.90;99.90;;;;;;5126001;27;20661;-75
2020/12/05 17:15:25;;;;;;;3.67;1.93;;;4.70;99.90;;;;;;5124990;27;20683;-77
2020/12/05 17:17:52;;;;;;;2.60;1.90;;;4.70;99.90;;;;;;5120690;27;20211;-75
2020/12/05 17:20:18;;;;;;;3.90;1.40;;;4.80;99.90;;;;;;5118906;27;20231;-77
2020/12/05 17:22:45;;;;;;;3.37;2.03;;;4.70;99.90;;;;;;5134469;27;20619;-76
2020/12/05 17:25:12;;;;;;;4.23;2.33;;;4.60;99.90;;;;;;5133487;27;20203;-76
2020/12/05 17:27:38;;;;;;;3.90;2.00;;;4.50;99.90;;;;;;5134046;27;20207;-75
2020/12/05 17:30:05;;;;;;;9.17;2.00;;;4.30;99.90;;;;;;5133081;27;20290;-75
2020/12/05 17:32:31;;;;;;;4.87;2.30;;;4.20;99.90;;;;;;5132897;27;20646;-76
2020/12/05 17:34:59;;;;;;;5.53;2.40;;;4.10;99.90;;;;;;5129594;27;20718;-75
2020/12/05 17:37:28;;;;;;;3.13;1.90;;;4.10;99.90;;;;;;5114064;27;20202;-76
2020/12/05 17:39:54;;;;;;;3.37;2.30;;;3.90;99.90;;;;;;5121489;27;20202;-77
2020/12/05 17:42:22;;;;;;;3.77;2.27;;;4.00;99.90;;;;;;5122072;27;20282;-76
2020/12/05 17:44:50;;;;;;;3.87;2.17;;;3.90;99.90;;;;;;5121362;27;20216;-75
2020/12/05 17:47:18;;;;;;;7.73;2.60;;;3.80;99.90;;;;;;5121543;27;20194;-75
2020/12/05 17:49:47;;;;;;;9.87;2.80;;;3.80;99.90;;;;;;5117712;27;20226;-76
2020/12/05 17:52:16;;;;;;;6.07;3.50;;;3.70;99.90;;;;;;5128142;27;20278;-76
2020/12/05 17:54:43;;;;;;;4.83;3.13;;;3.70;99.90;;;;;;5128421;27;20241;-75
2020/12/05 17:57:10;;;;;;;4.43;2.73;;;3.60;99.90;;;;;;5133726;27;20221;-78
2020/12/05 17:59:37;;;;;;;5.07;2.93;;;3.40;99.90;;;;;;5121641;27;20627;-76
2020/12/05 18:02:04;;;;;;;6.37;3.10;;;3.40;99.90;;;;;;5117527;27;20302;-76
2020/12/05 18:04:31;;;;;;;4.60;3.10;;;3.30;99.90;;;;;;5122592;27;20301;-78
2020/12/05 18:06:59;;;;;;;5.47;2.93;;;3.40;99.90;;;;;;5121122;27;20203;-75
2020/12/05 18:09:28;;;;;;;6.33;3.47;;;3.40;99.90;;;;;;5126403;27;20635;-76
2020/12/05 18:11:56;;;;;;;6.37;3.13;;;3.50;99.90;;;;;;5132547;27;20644;-76
2020/12/05 18:14:23;;;;;;;10.40;3.97;;;3.60;99.90;;;;;;5132251;27;20199;-77
2020/12/05 18:16:52;;;;;;;5.40;2.77;;;3.60;99.90;;;;;;5137377;27;20233;-77
2020/12/05 18:19:19;;;;;;;4.57;2.53;;;3.70;99.90;;;;;;5135302;27;20672;-76
2020/12/05 18:21:46;;;;;;;7.57;3.30;;;3.80;99.90;;;;;;5135901;27;20221;-76
2020/12/05 18:24:12;;;;;;;5.73;2.97;;;3.80;99.90;;;;;;5128488;27;20202;-77
2020/12/05 18:26:40;;;;;;;6.40;3.60;;;3.90;99.90;;;;;;5122829;27;20202;-77
2020/12/05 18:29:07;;;;;;;5.90;3.60;;;3.90;99.90;;;;;;5128334;27;20221;-77
2020/12/05 18:31:33;;;;;;;9.30;3.40;;;3.90;99.90;;;;;;5132873;27;20195;-78
2020/12/05 18:34:00;;;;;;;5.47;3.33;;;4.20;99.90;;;;;;5132443;27;20211;-77
2020/12/05 18:36:26;;;;;;;5.53;3.30;;;4.30;99.90;;;;;;5133058;27;20290;-77
2020/12/05 18:38:54;;;;;;;5.97;4.00;;;4.50;99.90;;;;;;5118809;27;20289;-76
2020/12/05 18:41:22;;;;;;;6.00;3.50;;;4.60;99.90;;;;;;5123078;27;20206;-80
2020/12/05 18:43:50;;;;;;;6.40;3.80;;;4.60;99.90;;;;;;5131966;27;20222;-77
2020/12/05 18:46:18;;;;;;;8.70;4.47;;;4.70;99.90;;;;;;5125318;27;20306;-77
2020/12/05 18:48:45;;;;;;;8.33;4.60;;;4.80;99.90;;;;;;5124171;27;20242;-76
2020/12/05 18:51:12;;;;;;;7.03;4.53;;;4.70;99.90;;;;;;5116340;27;20294;-77
2020/12/05 18:53:39;;;;;;;8.73;4.20;;;4.50;99.90;;;;;;5129120;27;20207;-75
2020/12/05 18:56:06;;;;;;;7.10;4.17;;;4.70;99.90;;;;;;5120020;27;20197;-75
2020/12/05 18:58:32;;;;;;;6.93;3.60;;;4.60;99.90;;;;;;5118223;27;20664;-76
2020/12/05 19:00:59;;;;;;;7.37;4.27;;;4.60;99.90;;;;;;5130522;27;20207;-76
2020/12/05 19:03:26;;;;;;;7.47;4.20;;;4.50;99.90;;;;;;5131402;27;20208;-78
2020/12/05 19:05:52;;;;;;;6.43;4.33;;;4.50;99.90;;;;;;5131813;27;20515;-76
2020/12/05 19:08:19;;;;;;;8.30;4.10;;;4.40;99.90;;;;;;5124478;27;20226;-78
2020/12/05 19:10:48;;;;;;;10.30;5.20;;;4.40;99.90;;;;;;5131493;27;20202;-79
2020/12/05 19:13:15;;;;;;;12.73;6.07;;;4.30;99.90;;;;;;5129888;27;20200;-77
2020/12/05 19:15:41;;;;;;;12.90;5.50;;;4.30;99.90;;;;;;5119707;27;20194;-76
2020/12/05 19:18:08;;;;;;;15.97;7.60;;;4.40;99.90;;;;;;5116154;27;20578;-76
2020/12/05 19:20:35;;;;;;;9.27;5.03;;;4.40;99.90;;;;;;5123151;27;20194;-76
2020/12/05 19:23:01;;;;;;;7.73;4.90;;;4.20;99.90;;;;;;5128727;27;20213;-75
2020/12/05 19:25:28;;;;;;;8.37;5.37;;;4.20;99.90;;;;;;5129408;27;20208;-78
2020/12/05 19:27:54;;;;;;;10.10;5.37;;;4.20;99.90;;;;;;5130451;27;20711;-77
2020/12/05 19:30:21;;;;;;;10.00;6.33;;;4.20;99.90;;;;;;5129105;27;20204;-76
2020/12/05 19:32:47;;;;;;;12.00;6.63;;;4.10;99.90;;;;;;5130820;27;20195;-77
2020/12/05 19:35:14;;;;;;;16.13;7.13;;;4.00;99.90;;;;;;5130193;27;20240;-76
2020/12/05 19:37:41;;;;;;;12.27;5.97;;;3.90;99.90;;;;;;5130431;27;20288;-76
2020/12/05 19:40:08;;;;;;;11.00;6.50;;;3.90;99.90;;;;;;5128821;27;20202;-77
2020/12/05 19:42:35;;;;;;;15.00;7.07;;;3.80;99.90;;;;;;5130315;27;20252;-76
2020/12/05 19:45:03;;;;;;;14.73;7.73;;;3.60;99.90;;;;;;5126989;27;20285;-78
2020/12/05 19:47:29;;;;;;;11.37;6.47;;;3.60;99.90;;;;;;5130252;27;20287;-76
2020/12/05 19:49:56;;;;;;;13.67;6.77;;;3.60;99.90;;;;;;5128619;27;20215;-75
2020/12/05 19:52:23;;;;;;;10.60;5.77;;;3.40;99.90;;;;;;5130240;27;20318;-78
2020/12/05 19:54:49;;;;;;;11.90;5.00;;;3.30;99.90;;;;;;5130042;27;20237;-76
2020/12/05 19:57:16;;;;;;;8.17;5.10;;;3.10;99.90;;;;;;5130158;27;20293;-76
2020/12/05 19:59:43;;;;;;;11.43;5.20;;;3.20;99.90;;;;;;5122362;27;20739;-76
2020/12/05 20:02:09;;;;;;;13.60;5.70;;;3.00;99.90;;;;;;5125767;27;20278;-78
2020/12/05 20:04:36;;;;;;;10.87;5.57;;;3.00;99.90;;;;;;5125945;27;20566;-78
2020/12/05 20:07:02;;;;;;;10.73;6.80;;;3.00;99.90;;;;;;5126284;27;20713;-76
2020/12/05 20:09:32;;;;;;;11.77;5.83;;;3.00;99.90;;;;;;5129774;27;20297;-75
2020/12/05 20:11:58;;;;;;;11.67;6.17;;;2.90;99.90;;;;;;5130208;27;20226;-76
2020/12/05 20:14:25;;;;;;;7.90;5.60;;;2.90;99.90;;;;;;5128337;27;20685;-76
2020/12/05 20:16:51;;;;;;;9.33;5.50;;;2.80;99.90;;;;;;5127196;27;20223;-79
2020/12/05 20:19:18;;;;;;;8.80;5.40;;;2.80;99.90;;;;;;5127703;27;20207;-76
2020/12/05 20:21:48;;;;;;;9.43;6.30;;;2.90;99.90;;;;;;5126822;27;20219;-78
2020/12/05 20:24:15;;;;;;;12.33;6.60;;;2.90;99.90;;;;;;5127347;27;20738;-76
2020/12/05 20:26:43;;;;;;;9.00;6.30;;;3.00;99.90;;;;;;5126636;27;20597;-77
2020/12/05 20:29:09;;;;;;;10.23;6.30;;;2.90;99.90;;;;;;5123887;27;20253;-76
2020/12/05 20:31:37;;;;;;;12.00;7.37;;;2.80;99.90;;;;;;5129975;27;20585;-78
2020/12/05 20:34:04;;;;;;;11.30;7.40;;;2.80;99.90;;;;;;5129614;27;20281;-78
2020/12/05 20:36:30;;;;;;;10.87;6.83;;;2.50;99.90;;;;;;5129182;27;20319;-77
2020/12/05 20:38:56;;;;;;;8.80;5.80;;;2.50;99.90;;;;;;5132357;27;20221;-76
2020/12/05 20:41:23;;;;;;;12.07;5.93;;;2.40;99.90;;;;;;5131150;27;20621;-76
2020/12/05 20:43:50;;;;;;;8.97;5.47;;;2.30;99.90;;;;;;5129275;27;20194;-78
2020/12/05 20:46:17;;;;;;;9.40;5.47;;;2.40;99.90;;;;;;5131798;27;20193;-76
2020/12/05 20:48:44;;;;;;;11.23;5.93;;;2.40;99.90;;;;;;5130018;27;20243;-76
2020/12/05 20:51:10;;;;;;;10.07;5.60;;;2.50;99.90;;;;;;5133606;27;20186;-76
2020/12/05 20:53:37;;;;;;;8.43;5.60;;;2.50;99.90;;;;;;5129009;27;20210;-77
2020/12/05 20:56:03;;;;;;;9.70;6.10;;;2.50;99.90;;;;;;5127712;27;20205;-77
2020/12/05 20:58:30;;;;;;;10.90;5.90;;;2.30;99.90;;;;;;5126678;27;20195;-77
2020/12/05 21:00:57;;;;;;;11.43;5.90;;;2.30;99.90;;;;;;5126305;27;20298;-77
2020/12/05 21:03:23;;;;;;;11.20;6.77;;;2.30;99.90;;;;;;5120977;27;20686;-79
2020/12/05 21:05:49;;;;;;;9.37;6.47;;;2.40;99.90;;;;;;5124789;27;20209;-78
2020/12/05 21:08:16;;;;;;;9.10;6.53;;;2.40;99.90;;;;;;5131159;27;20227;-77
2020/12/05 21:10:42;;;;;;;13.53;7.13;;;2.50;99.90;;;;;;5131105;27;20201;-77
2020/12/05 21:13:08;;;;;;;11.37;6.93;;;2.30;99.90;;;;;;5129257;27;20289;-77
2020/12/05 21:15:35;;;;;;;8.87;6.30;;;2.30;99.90;;;;;;5129337;27;20651;-77
2020/12/05 21:18:02;;;;;;;12.53;6.17;;;2.30;99.90;;;;;;5132803;27;20194;-78
2020/12/05 21:20:29;;;;;;;13.07;6.57;;;2.20;99.90;;;;;;5124874;27;20206;-78
2020/12/05 21:22:55;;;;;;;13.63;6.50;;;2.20;99.90;;;;;;5126406;27;20540;-78
2020/12/05 21:25:23;;;;;;;11.33;7.03;;;2.00;99.90;;;;;;5130844;27;20245;-78
2020/12/05 21:27:50;;;;;;;13.67;7.23;;;2.00;99.90;;;;;;5128870;27;20634;-77
2020/12/05 21:30:16;;;;;;;11.03;6.73;;;1.90;99.90;;;;;;5128840;27;20229;-76
2020/12/05 21:32:43;;;;;;;13.77;6.70;;;2.10;99.90;;;;;;5129549;27;20203;-77
2020/12/05 21:35:10;;;;;;;9.33;6.53;;;2.10;99.90;;;;;;5131448;27;20285;-79
2020/12/05 21:37:36;;;;;;;13.83;6.87;;;2.30;99.90;;;;;;5131710;27;20229;-77
2020/12/05 21:40:04;;;;;;;11.70;7.20;;;2.20;99.90;;;;;;5131728;27;20210;-77
2020/12/05 21:42:30;;;;;;;11.03;6.87;;;2.20;99.90;;;;;;5133083;27;20286;-77
2020/12/05 21:44:56;;;;;;;11.40;6.70;;;2.10;99.90;;;;;;5132307;27;20206;-78
2020/12/05 21:47:23;;;;;;;10.77;7.10;;;2.00;99.90;;;;;;5130084;27;20306;-78
2020/12/05 21:49:49;;;;;;;10.17;6.93;;;2.00;99.90;;;;;;5132833;27;20218;-77
2020/12/05 21:52:16;;;;;;;11.40;7.07;;;1.90;99.90;;;;;;5126629;27;20290;-77
2020/12/05 21:54:44;;;;;;;12.87;6.93;;;2.00;99.90;;;;;;5119709;27;20704;-77
2020/12/05 21:57:10;;;;;;;10.37;6.80;;;2.00;99.90;;;;;;5116489;27;20214;-78
2020/12/05 21:59:37;;;;;;;14.70;7.70;;;1.90;99.90;;;;;;5133369;27;20210;-77
2020/12/05 22:02:03;;;;;;;12.20;7.27;;;2.00;99.90;;;;;;5134549;27;20194;-78
2020/12/05 22:04:29;;;;;;;11.17;7.40;;;1.80;99.90;;;;;;5119816;27;20243;-77
2020/12/05 22:06:56;;;;;;;10.83;6.90;;;1.80;99.90;;;;;;5118184;27;20631;-77
2020/12/05 22:09:24;;;;;;;11.33;7.33;;;1.70;99.90;;;;;;5118160;27;20567;-77
2020/12/05 22:11:51;;;;;;;10.43;7.13;;;1.60;99.90;;;;;;5116314;27;20203;-79
2020/12/05 22:14:17;;;;;;;12.80;7.43;;;1.70;99.90;;;;;;5119207;27;20194;-77
2020/12/05 22:16:46;;;;;;;13.27;7.53;;;1.80;99.90;;;;;;5118426;27;20656;-76
2020/12/05 22:19:12;;;;;;;13.40;7.27;;;1.80;99.90;;;;;;5117830;27;20203;-78
2020/12/05 22:21:39;;;;;;;11.27;7.83;;;1.70;99.90;;;;;;5116055;27;20201;-77
2020/12/05 22:24:05;;;;;;;12.50;7.60;;;1.70;99.90;;;;;;5120767;27;20280;-77
2020/12/05 22:26:33;;;;;;;13.17;7.60;;;1.70;99.90;;;;;;5115846;27;20213;-76
2020/12/05 22:29:00;;;;;;;13.57;7.50;;;1.70;99.90;;;;;;5118926;27;20214;-77
2020/12/05 22:31:26;;;;;;;11.77;7.50;;;1.70;99.90;;;;;;5118965;27;20198;-78
2020/12/05 22:33:53;;;;;;;13.90;7.87;;;1.80;99.90;;;;;;5114430;27;20203;-76
2020/12/05 22:36:19;;;;;;;13.10;7.73;;;1.90;99.90;;;;;;5115216;27;20198;-76
2020/12/05 22:38:46;;;;;;;12.73;7.97;;;1.90;99.90;;;;;;5118654;27;20194;-76
2020/12/05 22:41:12;;;;;;;14.63;8.17;;;1.90;99.90;;;;;;5122120;27;20211;-77
2020/12/05 22:43:40;;;;;;;13.63;9.52;;;1.80;99.90;;;;;;5124532;27;20441;-77
2020/12/05 22:46:08;;;;;;;13.87;8.10;;;1.70;99.90;;;;;;5118683;27;20197;-77
2020/12/05 22:48:34;;;;;;;10.97;7.60;;;1.80;99.90;;;;;;5118521;27;20313;-78
2020/12/05 22:51:01;;;;;;;12.27;7.77;;;1.80;99.90;;;;;;5115074;27;20207;-78
2020/12/05 22:53:29;;;;;;;12.53;7.90;;;1.90;99.90;;;;;;5112252;27;20202;-78
2020/12/05 22:55:55;;;;;;;13.63;8.00;;;1.90;99.90;;;;;;5118998;27;20239;-79
2020/12/05 22:58:21;;;;;;;16.37;8.60;;;1.90;99.90;;;;;;5117855;27;20265;-78
2020/12/05 23:00:50;;;;;;;12.17;7.90;;;1.80;99.90;;;;;;5117146;27;20203;-77
2020/12/05 23:03:17;;;;;;;13.90;7.80;;;1.70;99.90;;;;;;5116768;27;20583;-78
2020/12/05 23:05:43;;;;;;;11.63;7.53;;;1.60;99.90;;;;;;5115670;27;20213;-77
2020/12/05 23:08:11;;;;;;;12.73;8.30;;;1.60;99.90;;;;;;5113091;27;20210;-76
2020/12/05 23:10:37;;;;;;;10.33;7.73;;;1.70;99.90;;;;;;5115513;27;20200;-78
2020/12/05 23:13:04;;;;;;;10.17;7.80;;;1.60;99.90;;;;;;5114102;27;20711;-77
2020/12/05 23:15:31;;;;;;;11.07;7.70;;;1.60;99.90;;;;;;5117064;27;20656;-76
2020/12/05 23:17:58;;;;;;;12.63;8.27;;;1.50;99.90;;;;;;5117043;27;20207;-76
2020/12/05 23:20:24;;;;;;;11.80;7.77;;;1.50;99.90;;;;;;5114020;27;20198;-77
2020/12/05 23:22:50;;;;;;;11.40;8.00;;;1.50;99.90;;;;;;5116712;27;20289;-77
2020/12/05 23:25:17;;;;;;;12.87;7.90;;;1.50;99.90;;;;;;5112406;27;20218;-77
2020/12/05 23:27:44;;;;;;;12.47;7.37;;;1.50;99.90;;;;;;5113510;27;20205;-78
2020/12/05 23:30:21;;;;;;;11.67;7.47;;;1.50;99.90;;;;;;5113609;27;20762;-79
2020/12/05 23:32:52;;;;;;;11.17;7.67;;;1.50;99.90;;;;;;5113458;27;20194;-77
2020/12/05 23:35:19;;;;;;;14.93;8.70;;;1.50;99.90;;;;;;5113689;27;20289;-78
2020/12/05 23:37:46;;;;;;;14.00;8.13;;;1.50;99.90;;;;;;5115084;27;20278;-77
2020/12/05 23:40:12;;;;;;;13.00;8.23;;;1.40;99.90;;;;;;5113461;27;20212;-78
2020/12/05 23:42:41;;;;;;;12.50;8.37;;;1.40;99.90;;;;;;5116866;27;20296;-77
2020/12/05 23:45:08;;;;;;;11.47;7.83;;;1.40;99.90;;;;;;5115147;27;20217;-77
2020/12/05 23:47:34;;;;;;;10.43;7.83;;;1.30;99.90;;;;;;5117044;27;21107;-77
2020/12/05 23:50:01;;;;;;;17.53;8.43;;;1.30;99.90;;;;;;5120156;27;20210;-77
2020/12/05 23:52:28;;;;;;;12.13;7.60;;;1.40;99.90;;;;;;5115840;27;20203;-78
2020/12/05 23:54:55;;;;;;;12.67;8.00;;;1.40;99.90;;;;;;5116190;27;21006;-77
2020/12/05 23:57:21;;;;;;;10.57;7.20;;;1.30;99.90;;;;;;5119166;27;20286;-78
2020/12/05 23:59:48;;;;;;;13.67;8.17;;;1.40;99.90;;;;;;5117754;27;20570;-79
